Time;durP1;ratioP1;P1;durP2;ratioP2;P2;SDS_P1;SDS_P2;PMS_P1;PMS_P2;Temp;Humidity;BMP_temperature;BMP_pressure;BME280_temperature;BME280_humidity;BME280_pressure;Samples;Min_cycle;Max_cycle;Signal;HPM_P1;HPM_P2
2022/12/31 00:01:20;;;;;;;7.33;7.13;;;22.10;58.90;;;;;;5052695;28;20451;-58
2022/12/31 00:03:47;;;;;;;7.60;7.40;;;22.10;58.70;;;;;;5052696;28;20607;-59
2022/12/31 00:06:20;;;;;;;8.20;8.00;;;22.10;58.60;;;;;;5052860;28;20527;-59
2022/12/31 00:08:48;;;;;;;7.93;7.63;;;22.20;58.60;;;;;;5052596;28;20987;-58
2022/12/31 00:11:15;;;;;;;7.40;7.20;;;22.20;58.50;;;;;;5052901;28;20444;-60
2022/12/31 00:13:42;;;;;;;7.27;7.13;;;22.10;58.20;;;;;;5052698;28;20531;-57
2022/12/31 00:16:12;;;;;;;7.57;7.37;;;22.10;58.30;;;;;;5052679;28;20459;-59
2022/12/31 00:18:39;;;;;;;7.87;7.67;;;22.00;58.20;;;;;;5052195;28;20528;-61
2022/12/31 00:21:07;;;;;;;6.70;6.60;;;21.90;58.20;;;;;;5052575;28;20440;-57
2022/12/31 00:23:36;;;;;;;6.97;6.87;;;21.80;58.30;;;;;;5052140;28;20959;-60
2022/12/31 00:26:05;;;;;;;7.23;7.03;;;21.80;58.50;;;;;;5052250;28;20462;-60
2022/12/31 00:28:33;;;;;;;7.20;7.10;;;21.80;58.50;;;;;;5052134;28;20480;-59
2022/12/31 00:31:05;;;;;;;7.10;6.90;;;21.70;58.60;;;;;;5052366;28;20444;-63
2022/12/31 00:33:32;;;;;;;7.30;7.10;;;21.70;58.70;;;;;;5051807;28;20451;-60
2022/12/31 00:36:05;;;;;;;7.47;7.27;;;21.60;59.30;;;;;;5052243;28;20968;-60
2022/12/31 00:38:32;;;;;;;7.43;7.23;;;21.50;58.80;;;;;;5052457;28;20491;-60
2022/12/31 00:41:00;;;;;;;7.07;6.97;;;21.50;58.90;;;;;;5052600;28;20447;-60
2022/12/31 00:43:27;;;;;;;7.00;6.80;;;21.50;59.00;;;;;;5053321;28;20535;-62
2022/12/31 00:45:54;;;;;;;7.23;7.13;;;21.40;59.00;;;;;;5052890;28;20860;-62
2022/12/31 00:48:21;;;;;;;7.10;7.00;;;21.40;59.20;;;;;;5053049;28;20483;-61
2022/12/31 00:50:48;;;;;;;7.60;7.40;;;21.40;59.20;;;;;;5052820;28;20959;-62
2022/12/31 00:53:14;;;;;;;7.10;7.00;;;21.30;59.20;;;;;;5052715;28;20549;-60
2022/12/31 00:55:41;;;;;;;7.10;7.00;;;21.30;59.30;;;;;;5052378;28;20447;-61
2022/12/31 00:58:09;;;;;;;7.10;7.00;;;21.30;59.40;;;;;;5051623;28;20444;-62
2022/12/31 01:00:36;;;;;;;6.93;6.80;;;21.20;59.40;;;;;;5050336;28;20519;-60
2022/12/31 01:03:03;;;;;;;7.17;7.07;;;21.20;59.50;;;;;;5051909;28;20452;-58
2022/12/31 01:05:31;;;;;;;6.63;6.53;;;21.20;59.60;;;;;;5051888;28;20535;-59
2022/12/31 01:07:58;;;;;;;7.17;7.00;;;21.10;59.60;;;;;;5051547;28;20529;-60
2022/12/31 01:13:06;;;;;;;6.73;6.63;;;21.10;59.70;;;;;;5051486;28;20424;-62
2022/12/31 01:15:35;;;;;;;7.30;7.10;;;21.10;59.80;;;;;;5051551;28;20440;-62
2022/12/31 01:18:03;;;;;;;6.60;6.50;;;21.10;59.90;;;;;;5035659;28;20433;-59
2022/12/31 01:20:29;;;;;;;6.70;6.60;;;21.00;59.80;;;;;;5051276;28;20808;-56
2022/12/31 01:22:56;;;;;;;6.90;6.80;;;21.00;59.90;;;;;;5051447;28;20532;-61
2022/12/31 01:25:23;;;;;;;7.20;7.07;;;21.00;59.90;;;;;;5051374;28;20538;-58
2022/12/31 01:27:50;;;;;;;7.10;7.00;;;21.00;59.90;;;;;;5051003;28;21044;-62
2022/12/31 01:30:17;;;;;;;7.00;6.90;;;21.00;60.10;;;;;;5051092;28;20467;-60
2022/12/31 01:32:45;;;;;;;7.13;7.03;;;21.00;60.90;;;;;;5051482;28;20450;-59
2022/12/31 01:35:12;;;;;;;7.30;7.13;;;20.90;60.00;;;;;;5051050;28;20451;-58
2022/12/31 01:37:39;;;;;;;7.07;6.97;;;20.90;60.00;;;;;;5050516;28;20441;-60
2022/12/31 01:40:06;;;;;;;7.00;6.90;;;20.90;60.10;;;;;;5051078;28;20546;-60
2022/12/31 01:42:33;;;;;;;6.90;6.80;;;20.90;60.20;;;;;;5051491;28;21048;-60
2022/12/31 01:45:00;;;;;;;7.20;7.00;;;20.90;60.30;;;;;;5051248;28;20513;-59
2022/12/31 01:47:35;;;;;;;7.00;6.90;;;20.90;60.30;;;;;;5051483;28;20539;-60
2022/12/31 01:50:10;;;;;;;7.13;7.03;;;20.90;60.30;;;;;;5050707;28;20478;-59
2022/12/31 01:52:41;;;;;;;7.20;7.10;;;20.90;60.40;;;;;;5051136;28;20534;-58
2022/12/31 01:55:13;;;;;;;7.40;7.20;;;20.80;60.30;;;;;;5051165;28;20456;-56
2022/12/31 01:57:41;;;;;;;7.33;7.20;;;20.80;60.50;;;;;;5051327;28;20446;-58
2022/12/31 02:00:09;;;;;;;7.40;7.20;;;20.80;60.50;;;;;;5050641;28;20787;-60
2022/12/31 02:02:36;;;;;;;6.90;6.80;;;20.80;60.50;;;;;;5050829;28;20444;-56
2022/12/31 02:05:12;;;;;;;7.73;7.53;;;20.80;60.60;;;;;;5051135;28;20443;-59
2022/12/31 02:07:39;;;;;;;7.20;7.10;;;20.80;60.60;;;;;;5050929;28;20448;-58
2022/12/31 02:10:06;;;;;;;7.50;7.30;;;20.80;60.60;;;;;;5050512;28;20472;-59
2022/12/31 02:12:33;;;;;;;6.83;6.73;;;20.80;60.60;;;;;;5054485;28;20448;-61
2022/12/31 02:15:00;;;;;;;6.90;6.80;;;20.80;60.70;;;;;;5055032;28;20447;-59
2022/12/31 02:17:33;;;;;;;7.10;7.00;;;20.70;60.60;;;;;;5054894;28;20810;-58
2022/12/31 02:20:40;;;;;;;7.30;7.10;;;20.70;60.70;;;;;;5054429;28;20486;-60
2022/12/31 02:23:30;;;;;;;6.70;6.60;;;20.70;60.60;;;;;;5055010;28;20455;-59
2022/12/31 02:26:23;;;;;;;6.57;6.47;;;20.80;60.80;;;;;;5054555;28;20787;-59
2022/12/31 02:29:12;;;;;;;6.47;6.37;;;20.70;60.70;;;;;;5050925;28;20486;-59
2022/12/31 02:31:45;;;;;;;6.87;6.77;;;20.70;60.80;;;;;;5054566;28;20519;-59
2022/12/31 02:34:18;;;;;;;6.90;6.70;;;20.70;60.90;;;;;;5054624;28;20448;-59
2022/12/31 02:36:47;;;;;;;6.60;6.50;;;20.70;60.90;;;;;;5054418;28;20448;-61
2022/12/31 02:39:15;;;;;;;6.60;6.50;;;20.70;61.00;;;;;;5054277;28;20470;-61
2022/12/31 02:41:51;;;;;;;7.20;7.10;;;20.60;61.00;;;;;;5054123;28;20452;-59
2022/12/31 02:44:25;;;;;;;6.70;6.50;;;20.70;61.10;;;;;;5054391;28;20475;-60
2022/12/31 02:47:05;;;;;;;7.07;6.97;;;20.60;61.00;;;;;;5054534;28;20439;-58
2022/12/31 02:49:42;;;;;;;6.97;6.87;;;20.60;61.10;;;;;;5053899;28;20574;-61
2022/12/31 02:52:24;;;;;;;6.50;6.40;;;20.70;61.30;;;;;;5054329;28;20448;-61
2022/12/31 02:54:59;;;;;;;7.20;7.10;;;20.60;61.40;;;;;;5054307;28;20945;-58
2022/12/31 02:57:30;;;;;;;6.90;6.80;;;20.60;61.40;;;;;;5053848;28;20448;-58
2022/12/31 03:02:47;;;;;;;7.13;6.93;;;20.60;61.70;;;;;;5032910;28;20428;-58
2022/12/31 03:05:17;;;;;;;6.40;6.30;;;20.60;61.70;;;;;;5054241;28;20451;-56
2022/12/31 03:07:44;;;;;;;6.87;6.77;;;20.50;61.60;;;;;;5053696;28;20456;-59
2022/12/31 03:10:11;;;;;;;6.70;6.50;;;20.60;61.80;;;;;;5053471;28;20467;-59
2022/12/31 03:12:47;;;;;;;6.90;6.70;;;20.50;61.80;;;;;;5053576;28;20455;-58
2022/12/31 03:15:22;;;;;;;6.80;6.70;;;20.50;61.80;;;;;;5034092;28;20456;-59
2022/12/31 03:17:56;;;;;;;8.43;7.80;;;20.50;62.00;;;;;;5035505;28;20448;-60
2022/12/31 03:23:12;;;;;;;6.80;6.70;;;20.50;62.10;;;;;;5037318;28;20439;-60
2022/12/31 03:25:38;;;;;;;6.30;6.20;;;20.50;62.10;;;;;;5053212;28;20440;-58
2022/12/31 03:28:07;;;;;;;6.73;6.63;;;20.50;62.30;;;;;;5053020;28;20501;-59
2022/12/31 03:30:35;;;;;;;7.00;6.90;;;20.50;62.30;;;;;;5053424;28;20451;-59
2022/12/31 03:33:04;;;;;;;6.60;6.50;;;20.50;62.30;;;;;;5053462;28;20888;-59
2022/12/31 03:35:34;;;;;;;6.60;6.50;;;20.50;62.40;;;;;;5053294;28;20441;-59
2022/12/31 03:38:02;;;;;;;6.90;6.80;;;20.50;62.40;;;;;;5053494;28;20953;-60
2022/12/31 03:40:30;;;;;;;6.90;6.80;;;20.50;62.50;;;;;;5052888;28;20445;-61
2022/12/31 03:42:57;;;;;;;7.30;7.20;;;20.50;62.60;;;;;;5052655;28;20817;-58
2022/12/31 03:45:24;;;;;;;6.63;6.53;;;20.50;62.60;;;;;;5053463;28;20462;-62
2022/12/31 03:47:51;;;;;;;6.80;6.70;;;20.50;62.70;;;;;;5053183;28;20534;-59
2022/12/31 03:50:20;;;;;;;6.90;6.80;;;20.40;62.80;;;;;;5052921;28;20543;-60
2022/12/31 03:52:46;;;;;;;6.20;6.10;;;20.40;62.80;;;;;;5053037;28;20486;-58
2022/12/31 03:55:13;;;;;;;6.70;6.60;;;20.40;62.70;;;;;;5053044;28;20450;-60
2022/12/31 03:57:40;;;;;;;6.37;6.27;;;20.40;62.90;;;;;;5052851;28;20455;-61
2022/12/31 04:00:10;;;;;;;6.50;6.40;;;20.40;62.80;;;;;;5052850;28;20472;-58
2022/12/31 04:02:37;;;;;;;9.00;8.80;;;20.40;63.00;;;;;;5053024;28;20440;-62
2022/12/31 04:05:05;;;;;;;6.60;6.50;;;20.40;62.90;;;;;;5052927;28;20440;-58
2022/12/31 04:07:33;;;;;;;6.77;6.67;;;20.40;63.00;;;;;;5052545;28;20443;-59
2022/12/31 04:10:00;;;;;;;6.60;6.50;;;20.40;63.20;;;;;;5052301;28;20566;-59
2022/12/31 04:12:26;;;;;;;6.63;6.53;;;20.40;63.00;;;;;;5052914;28;20535;-61
2022/12/31 04:14:53;;;;;;;6.63;6.53;;;20.40;63.10;;;;;;5052635;28;20453;-58
2022/12/31 04:17:20;;;;;;;6.37;6.27;;;20.40;63.20;;;;;;5052933;28;20444;-58
2022/12/31 04:19:47;;;;;;;6.67;6.57;;;20.40;63.10;;;;;;5052041;28;20914;-61
2022/12/31 04:22:14;;;;;;;6.43;6.33;;;20.40;63.30;;;;;;5052376;28;20451;-59
2022/12/31 04:24:43;;;;;;;6.50;6.40;;;20.40;63.40;;;;;;5052540;28;20448;-60
2022/12/31 04:27:10;;;;;;;6.43;6.33;;;20.40;63.50;;;;;;5052542;28;20856;-59
2022/12/31 04:29:37;;;;;;;6.20;6.10;;;20.40;63.50;;;;;;5051866;28;20488;-59
2022/12/31 04:32:04;;;;;;;6.17;6.07;;;20.30;63.40;;;;;;5052555;28;20824;-58
2022/12/31 04:34:32;;;;;;;6.50;6.40;;;20.30;63.50;;;;;;5051834;28;20448;-59
2022/12/31 04:36:59;;;;;;;7.07;6.87;;;20.30;63.60;;;;;;5052024;28;20444;-59
2022/12/31 04:39:26;;;;;;;6.60;6.50;;;20.30;63.50;;;;;;5052013;28;20807;-58
2022/12/31 04:41:54;;;;;;;6.40;6.30;;;20.30;63.70;;;;;;5052327;28;20466;-59
2022/12/31 04:44:21;;;;;;;6.90;6.80;;;20.30;63.80;;;;;;5052017;28;20886;-59
2022/12/31 04:46:48;;;;;;;6.33;6.23;;;20.30;63.80;;;;;;5052269;28;20932;-59
2022/12/31 04:49:15;;;;;;;6.60;6.50;;;20.30;63.80;;;;;;5051351;28;20487;-59
2022/12/31 04:51:42;;;;;;;6.57;6.47;;;20.30;63.90;;;;;;5051879;28;20454;-58
2022/12/31 04:54:09;;;;;;;6.63;6.53;;;20.30;63.90;;;;;;5051893;28;20539;-58
2022/12/31 04:56:35;;;;;;;6.90;6.80;;;20.30;64.00;;;;;;5051838;28;20824;-57
2022/12/31 04:59:04;;;;;;;6.40;6.30;;;20.30;64.20;;;;;;5051769;28;20467;-60
2022/12/31 05:01:31;;;;;;;6.50;6.40;;;20.30;64.20;;;;;;5051663;28;20448;-56
2022/12/31 05:03:58;;;;;;;6.50;6.40;;;20.30;64.30;;;;;;5051399;28;20506;-59
2022/12/31 05:06:25;;;;;;;6.53;6.43;;;20.30;64.20;;;;;;5051725;28;20445;-58
2022/12/31 05:08:52;;;;;;;6.80;6.70;;;20.30;64.20;;;;;;5051218;28;21092;-59
2022/12/31 05:11:19;;;;;;;6.93;6.83;;;20.30;64.30;;;;;;5051720;28;20813;-59
2022/12/31 05:13:46;;;;;;;6.70;6.50;;;20.30;64.50;;;;;;5051754;28;20539;-59
2022/12/31 05:16:14;;;;;;;6.50;6.40;;;20.30;64.60;;;;;;5051545;28;20960;-62
2022/12/31 05:18:41;;;;;;;6.40;6.30;;;20.30;64.60;;;;;;5051964;28;20550;-61
2022/12/31 05:21:07;;;;;;;6.53;6.43;;;20.30;64.70;;;;;;5051600;28;20929;-60
2022/12/31 05:23:34;;;;;;;6.43;6.23;;;20.30;64.70;;;;;;5051432;28;20539;-61
2022/12/31 05:26:01;;;;;;;6.60;6.50;;;20.30;64.80;;;;;;5051391;28;20448;-60
2022/12/31 05:28:28;;;;;;;6.20;6.10;;;20.30;64.90;;;;;;5050891;28;20526;-61
2022/12/31 05:30:55;;;;;;;6.20;6.10;;;20.30;64.90;;;;;;5051382;28;20440;-58
2022/12/31 05:33:23;;;;;;;7.10;7.00;;;20.30;65.00;;;;;;5051424;28;20451;-61
2022/12/31 05:35:50;;;;;;;6.20;6.10;;;20.30;65.00;;;;;;5051348;28;20869;-61
2022/12/31 05:38:17;;;;;;;6.00;5.90;;;20.30;65.00;;;;;;5049748;28;20555;-60
2022/12/31 05:40:44;;;;;;;6.20;6.10;;;20.20;65.10;;;;;;5050925;28;20861;-62
2022/12/31 05:43:11;;;;;;;6.53;6.43;;;20.20;65.10;;;;;;5051026;28;20450;-60
2022/12/31 05:45:37;;;;;;;6.30;6.20;;;20.30;65.30;;;;;;5051871;28;21024;-62
2022/12/31 05:48:05;;;;;;;6.33;6.23;;;20.30;65.30;;;;;;5055296;28;20447;-61
2022/12/31 05:50:33;;;;;;;6.40;6.30;;;20.20;65.40;;;;;;5055317;28;20483;-61
2022/12/31 05:53:00;;;;;;;6.27;6.17;;;20.20;65.30;;;;;;5055297;28;20501;-61
2022/12/31 05:55:27;;;;;;;6.10;6.00;;;20.20;65.40;;;;;;5055365;28;20467;-60
2022/12/31 05:57:53;;;;;;;6.77;6.67;;;20.20;65.60;;;;;;5054881;28;20795;-60
2022/12/31 06:00:20;;;;;;;6.50;6.40;;;20.20;65.50;;;;;;5055105;28;20542;-60
2022/12/31 06:02:47;;;;;;;6.43;6.33;;;20.20;65.70;;;;;;5055304;28;20637;-59
2022/12/31 06:05:14;;;;;;;8.53;8.33;;;20.20;65.80;;;;;;5054931;28;20548;-61
2022/12/31 06:07:42;;;;;;;8.33;8.23;;;20.20;65.70;;;;;;5055398;28;20531;-61
2022/12/31 06:10:09;;;;;;;8.07;7.97;;;20.20;65.80;;;;;;5054582;28;21060;-62
2022/12/31 06:12:36;;;;;;;6.80;6.70;;;20.20;65.90;;;;;;5054930;28;20821;-61
2022/12/31 06:15:04;;;;;;;6.40;6.30;;;20.20;65.90;;;;;;5046326;28;20448;-59
2022/12/31 06:17:31;;;;;;;6.00;5.90;;;20.20;66.10;;;;;;5055302;28;20444;-61
2022/12/31 06:19:58;;;;;;;6.50;6.30;;;20.20;66.00;;;;;;5054369;28;20468;-62
2022/12/31 06:22:27;;;;;;;6.43;6.33;;;20.20;66.10;;;;;;5055103;28;20448;-60
2022/12/31 06:24:56;;;;;;;6.20;6.10;;;20.20;66.30;;;;;;5054691;28;20454;-61
2022/12/31 06:27:22;;;;;;;6.90;6.80;;;20.20;66.20;;;;;;5054486;28;20523;-59
2022/12/31 06:29:49;;;;;;;7.37;7.27;;;20.20;66.30;;;;;;5054337;28;20578;-61
2022/12/31 06:32:16;;;;;;;7.63;7.43;;;20.20;66.30;;;;;;5054735;28;20460;-62
2022/12/31 06:34:43;;;;;;;7.77;7.57;;;20.20;66.60;;;;;;5054571;28;20442;-59
2022/12/31 06:37:10;;;;;;;7.13;7.03;;;20.20;66.60;;;;;;5054543;28;20554;-60
2022/12/31 06:39:37;;;;;;;6.97;6.87;;;20.20;66.70;;;;;;5054010;28;20539;-61
2022/12/31 06:42:05;;;;;;;7.30;7.20;;;20.20;66.80;;;;;;5054443;28;20531;-59
2022/12/31 06:44:32;;;;;;;7.20;7.10;;;20.20;66.70;;;;;;5054210;28;20452;-60
2022/12/31 06:46:59;;;;;;;7.20;7.10;;;20.20;66.70;;;;;;5054256;28;20461;-60
2022/12/31 06:49:26;;;;;;;7.10;7.00;;;20.20;66.90;;;;;;5053984;28;20818;-61
2022/12/31 06:51:52;;;;;;;7.40;7.30;;;20.20;66.90;;;;;;5053955;28;20547;-60
2022/12/31 06:54:19;;;;;;;7.00;6.90;;;20.20;66.90;;;;;;5054272;28;20881;-59
2022/12/31 06:56:47;;;;;;;7.00;6.90;;;20.20;67.10;;;;;;5054400;28;20450;-61
2022/12/31 06:59:24;;;;;;;6.70;6.60;;;20.10;67.10;;;;;;5053770;28;20539;-61
2022/12/31 07:02:05;;;;;;;6.80;6.70;;;20.10;67.00;;;;;;5054013;28;20493;-61
2022/12/31 07:05:00;;;;;;;7.40;7.30;;;20.20;67.10;;;;;;5053840;28;20455;-58
2022/12/31 07:07:33;;;;;;;7.50;7.40;;;20.20;67.40;;;;;;5034310;28;20829;-59
2022/12/31 07:10:11;;;;;;;6.40;6.30;;;20.10;67.30;;;;;;5052109;28;20491;-59
2022/12/31 07:12:52;;;;;;;6.90;6.80;;;20.10;67.50;;;;;;5054212;28;20458;-59
2022/12/31 07:15:34;;;;;;;6.90;6.80;;;20.10;67.40;;;;;;5034306;28;20449;-59
2022/12/31 07:18:06;;;;;;;6.97;6.87;;;20.10;67.40;;;;;;5051811;28;20444;-61
2022/12/31 07:20:34;;;;;;;6.77;6.67;;;20.10;67.40;;;;;;5053720;28;20444;-60
2022/12/31 07:23:01;;;;;;;6.90;6.80;;;20.10;67.50;;;;;;5053495;28;20929;-59
2022/12/31 07:25:29;;;;;;;7.30;7.20;;;20.10;67.50;;;;;;5053823;28;20813;-58
2022/12/31 07:28:11;;;;;;;7.50;7.40;;;20.10;67.70;;;;;;5053262;28;20820;-62
2022/12/31 07:30:47;;;;;;;7.00;6.90;;;20.10;67.80;;;;;;5053161;28;20559;-61
2022/12/31 07:33:33;;;;;;;7.00;6.90;;;20.10;67.70;;;;;;5053388;28;20455;-59
2022/12/31 07:36:12;;;;;;;7.27;7.17;;;20.10;67.70;;;;;;5050262;28;20444;-58
2022/12/31 07:38:49;;;;;;;7.30;7.20;;;20.10;67.70;;;;;;5053371;28;20460;-58
2022/12/31 07:41:23;;;;;;;7.00;6.90;;;20.10;67.80;;;;;;5053269;28;20440;-60
2022/12/31 07:43:58;;;;;;;7.00;6.90;;;20.10;68.20;;;;;;5053321;28;20480;-60
2022/12/31 07:46:34;;;;;;;7.07;6.97;;;20.10;68.20;;;;;;5053385;28;20527;-61
2022/12/31 07:49:02;;;;;;;6.97;6.87;;;20.10;68.20;;;;;;5052897;28;20468;-61
2022/12/31 07:51:29;;;;;;;7.77;7.57;;;20.10;68.40;;;;;;5052944;28;20841;-60
2022/12/31 07:53:56;;;;;;;7.40;7.30;;;20.10;68.30;;;;;;5053345;28;20446;-59
2022/12/31 07:56:23;;;;;;;8.00;7.80;;;20.10;68.30;;;;;;5052962;28;20535;-59
2022/12/31 07:59:01;;;;;;;7.20;7.10;;;20.10;68.30;;;;;;5052513;28;20558;-58
2022/12/31 08:01:41;;;;;;;7.40;7.30;;;20.10;68.40;;;;;;5053097;28;20444;-59
2022/12/31 08:04:17;;;;;;;7.67;7.57;;;20.10;68.50;;;;;;5052697;28;21036;-57
2022/12/31 08:06:50;;;;;;;7.87;7.67;;;20.10;68.60;;;;;;5053097;28;20450;-59
2022/12/31 08:09:27;;;;;;;7.60;7.40;;;20.10;68.60;;;;;;5051815;28;20468;-62
2022/12/31 08:11:57;;;;;;;7.70;7.60;;;20.10;68.70;;;;;;5052715;28;20448;-58
2022/12/31 08:14:25;;;;;;;8.00;7.80;;;20.10;69.60;;;;;;5052608;28;20444;-57
2022/12/31 08:16:54;;;;;;;8.10;7.90;;;20.10;68.90;;;;;;5052888;28;20444;-59
2022/12/31 08:19:25;;;;;;;7.70;7.60;;;20.10;69.00;;;;;;5052164;28;20482;-59
2022/12/31 08:22:12;;;;;;;7.57;7.37;;;20.10;69.00;;;;;;5052361;28;20444;-59
2022/12/31 08:24:51;;;;;;;8.10;7.90;;;20.10;69.00;;;;;;5052218;28;20527;-61
2022/12/31 08:27:23;;;;;;;7.90;7.80;;;20.10;69.80;;;;;;5052431;28;20455;-60
2022/12/31 08:30:01;;;;;;;7.93;7.83;;;20.10;69.40;;;;;;5051766;28;21204;-58
2022/12/31 08:32:38;;;;;;;8.10;7.90;;;20.10;69.40;;;;;;5041407;28;20448;-59
2022/12/31 08:35:17;;;;;;;8.10;8.00;;;20.10;69.40;;;;;;5052438;28;20459;-58
2022/12/31 08:37:50;;;;;;;8.20;8.00;;;20.10;69.50;;;;;;5051760;28;20444;-59
2022/12/31 08:40:23;;;;;;;8.23;8.13;;;20.10;69.40;;;;;;5051756;28;20466;-59
2022/12/31 08:43:10;;;;;;;8.37;8.27;;;20.10;69.40;;;;;;5052236;28;20448;-59
2022/12/31 08:45:41;;;;;;;8.40;8.27;;;20.10;69.60;;;;;;5032454;28;20455;-57
2022/12/31 08:48:17;;;;;;;8.73;8.53;;;20.10;69.40;;;;;;5034834;28;20795;-61
2022/12/31 08:50:44;;;;;;;8.80;8.60;;;20.10;69.60;;;;;;5051753;28;20482;-58
2022/12/31 08:53:11;;;;;;;8.30;8.10;;;20.10;69.70;;;;;;5051827;28;20449;-60
2022/12/31 08:55:39;;;;;;;8.73;8.60;;;20.10;69.60;;;;;;5052037;28;20452;-58
2022/12/31 08:58:18;;;;;;;8.83;8.63;;;20.10;69.90;;;;;;5051726;28;20440;-58
2022/12/31 09:00:47;;;;;;;8.80;8.60;;;20.10;69.80;;;;;;5051528;28;20444;-60
2022/12/31 09:03:34;;;;;;;8.90;8.70;;;20.10;70.60;;;;;;5051707;28;20450;-59
2022/12/31 09:06:10;;;;;;;8.40;8.20;;;20.10;70.20;;;;;;5051686;28;20822;-59
2022/12/31 09:08:46;;;;;;;8.50;8.30;;;20.10;70.10;;;;;;5051659;28;20460;-59
2022/12/31 09:11:18;;;;;;;8.60;8.50;;;20.10;70.00;;;;;;5051771;28;20570;-58
2022/12/31 09:14:04;;;;;;;8.37;8.23;;;20.10;70.00;;;;;;5051671;28;20816;-60
2022/12/31 09:16:38;;;;;;;8.60;8.40;;;20.10;69.90;;;;;;5051778;28;20447;-59
2022/12/31 09:19:08;;;;;;;8.80;8.60;;;20.00;70.00;;;;;;5050683;28;20494;-61
2022/12/31 09:21:36;;;;;;;9.00;8.80;;;20.10;70.30;;;;;;5050803;28;20447;-58
2022/12/31 09:24:04;;;;;;;8.90;8.70;;;20.00;70.30;;;;;;5051543;28;20444;-58
2022/12/31 09:26:44;;;;;;;8.93;8.73;;;20.00;70.10;;;;;;5050813;28;20830;-59
2022/12/31 09:29:19;;;;;;;8.90;8.70;;;20.00;70.50;;;;;;5051256;28;20478;-57
2022/12/31 09:31:53;;;;;;;9.00;8.80;;;20.10;71.10;;;;;;5035641;28;20482;-58
2022/12/31 09:34:29;;;;;;;9.70;9.50;;;20.10;73.60;;;;;;5051982;28;20448;-52
2022/12/31 09:37:01;;;;;;;9.30;9.00;;;20.10;74.10;;;;;;5051264;28;20937;-59
2022/12/31 09:39:34;;;;;;;9.20;8.90;;;20.20;74.40;;;;;;5050239;28;20546;-52
2022/12/31 09:42:34;;;;;;;9.37;9.17;;;20.30;74.10;;;;;;5036185;28;20447;-51
2022/12/31 09:45:32;;;;;;;9.37;9.17;;;20.30;73.80;;;;;;5039632;28;20445;-54
2022/12/31 09:48:38;;;;;;;10.90;10.60;;;20.40;73.40;;;;;;5031803;28;20870;-55
2022/12/31 09:51:19;;;;;;;9.20;9.00;;;20.50;73.20;;;;;;5044253;28;20814;-52
2022/12/31 09:54:26;;;;;;;9.27;9.07;;;20.50;73.60;;;;;;5051948;28;20447;-51
2022/12/31 09:57:10;;;;;;;9.20;9.00;;;20.60;72.90;;;;;;5051455;28;20861;-52
2022/12/31 09:59:45;;;;;;;9.27;9.07;;;20.70;72.60;;;;;;5051355;28;20543;-53
2022/12/31 10:02:22;;;;;;;9.30;9.10;;;20.70;72.10;;;;;;5047606;28;20436;-56
2022/12/31 10:05:01;;;;;;;10.20;9.90;;;20.80;72.00;;;;;;5031621;28;20455;-54
2022/12/31 10:07:46;;;;;;;9.63;9.43;;;20.80;71.90;;;;;;5031711;28;20445;-53
2022/12/31 10:10:20;;;;;;;9.83;9.60;;;20.80;71.80;;;;;;5031250;28;20480;-61
2022/12/31 10:13:23;;;;;;;8.97;8.77;;;20.90;71.90;;;;;;5035077;28;20459;-54
2022/12/31 10:16:15;;;;;;;8.83;8.63;;;20.90;71.50;;;;;;5051464;28;20956;-55
2022/12/31 10:19:03;;;;;;;9.70;9.40;;;20.90;71.30;;;;;;5050871;28;21055;-61
2022/12/31 10:21:45;;;;;;;9.60;9.30;;;21.00;71.40;;;;;;5051196;28;20440;-59
2022/12/31 10:24:39;;;;;;;10.20;9.90;;;21.00;71.30;;;;;;5051113;28;20444;-56
2022/12/31 10:27:21;;;;;;;9.50;9.30;;;21.00;71.20;;;;;;5051115;28;20523;-53
2022/12/31 10:29:56;;;;;;;9.53;9.13;;;21.00;70.80;;;;;;5051197;28;20464;-59
2022/12/31 10:32:36;;;;;;;8.87;8.67;;;21.00;70.40;;;;;;5054083;28;20444;-58
2022/12/31 10:35:14;;;;;;;9.53;9.27;;;21.00;71.00;;;;;;5036311;28;20451;-57
2022/12/31 10:37:48;;;;;;;9.30;9.10;;;21.10;70.70;;;;;;5056134;28;20443;-58
2022/12/31 10:40:26;;;;;;;9.90;9.70;;;21.10;70.50;;;;;;5055394;28;20547;-56
2022/12/31 10:43:32;;;;;;;9.47;9.10;;;21.20;70.50;;;;;;5055464;28;20933;-56
2022/12/31 10:46:23;;;;;;;9.60;9.40;;;21.20;70.40;;;;;;5055135;28;20933;-58
2022/12/31 10:49:12;;;;;;;9.57;9.27;;;21.20;70.60;;;;;;5054387;28;21003;-52
2022/12/31 10:52:28;;;;;;;9.63;9.43;;;21.20;70.70;;;;;;5054142;28;21011;-57
2022/12/31 10:55:25;;;;;;;9.97;9.70;;;21.20;70.60;;;;;;5054148;28;20817;-53
2022/12/31 10:58:44;;;;;;;9.50;9.30;;;21.20;70.60;;;;;;5054224;28;20444;-57
2022/12/31 11:01:17;;;;;;;9.30;9.10;;;21.20;70.80;;;;;;4972847;28;20452;-59
2022/12/31 11:04:26;;;;;;;9.77;9.47;;;21.30;71.10;;;;;;5037628;28;20453;-58
2022/12/31 11:07:32;;;;;;;9.50;9.20;;;21.20;70.20;;;;;;5006932;28;20456;-59
2022/12/31 11:10:25;;;;;;;9.00;8.80;;;21.20;69.50;;;;;;5050383;28;20985;-56
2022/12/31 11:13:37;;;;;;;9.73;9.53;;;21.30;70.50;;;;;;5053865;28;20956;-51
2022/12/31 11:16:19;;;;;;;10.30;9.53;;;21.30;71.50;;;;;;4972756;28;20448;-56
2022/12/31 11:18:55;;;;;;;9.43;9.23;;;21.30;72.20;;;;;;4973123;28;20535;-58
2022/12/31 11:21:32;;;;;;;9.93;9.63;;;21.40;71.90;;;;;;5028508;28;20439;-54
2022/12/31 11:24:05;;;;;;;11.70;11.03;;;21.40;72.30;;;;;;5053657;28;20448;-56
2022/12/31 11:26:45;;;;;;;9.40;9.20;;;21.40;71.60;;;;;;5053849;28;20444;-56
2022/12/31 11:29:30;;;;;;;9.50;9.30;;;21.50;71.50;;;;;;5052950;28;20466;-56
2022/12/31 11:32:10;;;;;;;9.93;9.63;;;21.50;71.50;;;;;;5036746;28;20838;-53
2022/12/31 11:35:03;;;;;;;8.90;8.70;;;21.50;71.50;;;;;;5053433;28;20474;-51
2022/12/31 11:37:36;;;;;;;9.43;9.23;;;21.50;71.30;;;;;;5053351;28;20480;-52
2022/12/31 11:40:18;;;;;;;9.13;8.93;;;21.60;71.40;;;;;;5053073;28;20464;-56
2022/12/31 11:42:55;;;;;;;9.87;9.57;;;21.60;71.20;;;;;;5053124;28;20455;-56
2022/12/31 11:45:40;;;;;;;9.20;9.00;;;21.60;71.10;;;;;;5052218;28;20448;-56
2022/12/31 11:48:15;;;;;;;9.70;9.40;;;21.70;70.90;;;;;;5052832;28;20450;-57
2022/12/31 11:50:50;;;;;;;10.13;9.80;;;21.70;70.20;;;;;;5052603;28;20494;-56
2022/12/31 11:53:53;;;;;;;9.30;9.00;;;21.70;70.10;;;;;;5053219;28;20451;-50
2022/12/31 11:56:24;;;;;;;9.43;9.20;;;21.80;70.30;;;;;;5053306;28;20444;-52
2022/12/31 11:58:53;;;;;;;9.30;9.00;;;21.80;71.50;;;;;;5052524;28;20513;-52
2022/12/31 12:01:25;;;;;;;9.10;8.80;;;21.80;71.80;;;;;;5052772;28;20446;-52
2022/12/31 12:03:52;;;;;;;10.40;10.10;;;21.90;71.90;;;;;;5052926;28;20444;-51
2022/12/31 12:06:25;;;;;;;9.63;9.43;;;21.90;71.60;;;;;;5052727;28;20963;-52
2022/12/31 12:08:52;;;;;;;9.87;9.60;;;22.00;71.50;;;;;;5052492;28;20468;-55
2022/12/31 12:11:22;;;;;;;10.33;9.83;;;22.00;70.80;;;;;;5053070;28;20578;-56
2022/12/31 12:13:49;;;;;;;10.10;9.77;;;22.10;70.30;;;;;;5052609;28;20454;-53
2022/12/31 12:16:16;;;;;;;9.40;9.10;;;22.10;70.00;;;;;;5052091;28;20530;-51
2022/12/31 12:18:47;;;;;;;9.53;9.33;;;22.10;69.90;;;;;;5052444;28;20535;-54
2022/12/31 12:21:16;;;;;;;10.40;10.10;;;22.20;69.60;;;;;;5052882;28;20441;-56
2022/12/31 12:23:55;;;;;;;10.87;10.57;;;22.20;69.50;;;;;;5052633;28;20451;-52
2022/12/31 12:26:33;;;;;;;10.53;10.33;;;22.20;69.30;;;;;;5052121;28;20505;-50
2022/12/31 12:29:08;;;;;;;10.77;10.47;;;22.30;69.30;;;;;;5052321;28;20475;-52
2022/12/31 12:31:36;;;;;;;10.33;9.90;;;22.30;69.30;;;;;;5052286;28;20479;-54
2022/12/31 12:34:05;;;;;;;10.10;9.80;;;22.30;69.00;;;;;;5052390;28;20448;-53
2022/12/31 12:36:33;;;;;;;9.60;9.30;;;22.30;68.90;;;;;;5052192;28;20523;-53
2022/12/31 12:39:04;;;;;;;10.37;10.13;;;22.40;68.70;;;;;;5052174;28;20471;-54
2022/12/31 12:41:32;;;;;;;9.33;9.13;;;22.40;68.70;;;;;;5053170;28;20451;-52
2022/12/31 12:44:03;;;;;;;9.87;9.57;;;22.40;68.60;;;;;;5053084;28;20444;-50
2022/12/31 12:46:33;;;;;;;10.67;10.30;;;22.50;69.20;;;;;;5052589;28;20444;-50
2022/12/31 12:49:01;;;;;;;9.30;9.00;;;22.50;68.50;;;;;;5052644;28;20464;-51
2022/12/31 12:51:42;;;;;;;9.63;9.33;;;22.40;67.00;;;;;;5053243;28;20483;-52
2022/12/31 12:54:21;;;;;;;10.00;9.80;;;22.40;67.40;;;;;;5040826;28;20536;-52
2022/12/31 12:56:58;;;;;;;9.83;9.53;;;22.40;66.80;;;;;;5032683;28;20802;-53
2022/12/31 12:59:58;;;;;;;10.17;9.87;;;22.40;66.60;;;;;;5046924;28;20478;-56
2022/12/31 13:02:47;;;;;;;10.10;9.60;;;22.30;67.60;;;;;;5030389;28;20536;-52
2022/12/31 13:05:24;;;;;;;8.90;8.70;;;22.30;68.60;;;;;;5051791;28;20449;-54
2022/12/31 13:08:03;;;;;;;9.60;9.30;;;22.30;68.40;;;;;;5051846;28;20459;-52
2022/12/31 13:10:48;;;;;;;10.20;9.60;;;22.30;68.70;;;;;;5051568;28;20448;-55
2022/12/31 13:13:23;;;;;;;9.67;9.37;;;22.20;69.30;;;;;;5051736;28;20444;-54
2022/12/31 13:15:56;;;;;;;9.47;9.20;;;22.20;69.50;;;;;;5051646;28;20530;-56
2022/12/31 13:18:35;;;;;;;10.03;9.40;;;22.30;69.80;;;;;;5051538;28;20954;-52
2022/12/31 13:21:20;;;;;;;9.80;9.50;;;22.30;69.60;;;;;;5050842;28;20450;-53
2022/12/31 13:23:55;;;;;;;9.40;9.20;;;22.30;69.50;;;;;;5051242;28;20437;-56
2022/12/31 13:26:27;;;;;;;10.10;9.80;;;22.30;68.70;;;;;;5037435;28;20446;-50